Cato Island, Australia
Current Conditions -  °F | °C
As of 10:00 PM on Wednesday 22 Oct 2014 (Local Time) from YBUD Reporting Station
Clear Clear  
Wind Chill: 16°   Ceiling: Unl
Heat Index: 16°   Visibility: 6mi
Dew Point: 11°   Wind: 10mph
Humidity: 72%   Direction: 140°SE
Pressure: 30.18"   Gusts: NA
Location:  23.25°S, 155.53°E
Report Text: YBUD 221200Z AUTO 14009KT 9999 // NCD 16/11 Q1022
Loading
Personal Weather Stations






























Interactive Weather Map
Tropical Storm Tracking
New forecast layout! Learn more

10-Day Weather Forecast

Advertisements
Track Severe Weather on mobile